Time;durP1;ratioP1;P1;durP2;ratioP2;P2;SDS_P1;SDS_P2;PMS_P1;PMS_P2;Temp;Humidity;BMP_temperature;BMP_pressure;BME280_temperature;BME280_humidity;BME280_pressure;Samples;Min_cycle;Max_cycle;Signal;HPM_P1;HPM_P2
2021/04/11 00:01:45;;;;;;;14.60;11.32;;;8.90;99.90;;;;;;4904766;29;20116;-75
2021/04/11 00:04:12;;;;;;;18.98;13.30;;;8.80;99.90;;;;;;4892380;29;20059;-75
2021/04/11 00:06:38;;;;;;;16.23;12.55;;;8.90;99.90;;;;;;4875102;29;20060;-75
2021/04/11 00:09:06;;;;;;;17.67;13.52;;;8.90;99.90;;;;;;4894548;29;20492;-75
2021/04/11 00:11:33;;;;;;;20.50;13.30;;;8.90;99.90;;;;;;4879938;29;20105;-75
2021/04/11 00:13:59;;;;;;;21.30;14.50;;;8.90;99.90;;;;;;4897321;29;20055;-75
2021/04/11 00:16:26;;;;;;;17.30;12.55;;;8.90;99.90;;;;;;4896337;29;20052;-74
2021/04/11 00:18:52;;;;;;;14.43;11.95;;;8.80;99.90;;;;;;4892451;29;20067;-75
2021/04/11 00:21:19;;;;;;;21.27;13.95;;;8.90;99.90;;;;;;4858744;29;20146;-75
2021/04/11 00:23:45;;;;;;;22.15;13.82;;;8.80;99.90;;;;;;4889536;29;20064;-75
2021/04/11 00:26:12;;;;;;;18.42;13.20;;;8.90;99.90;;;;;;4890256;29;20080;-74
2021/04/11 00:28:39;;;;;;;25.33;12.77;;;8.90;99.90;;;;;;4906479;29;20724;-75
2021/04/11 00:31:05;;;;;;;17.65;12.80;;;8.90;99.90;;;;;;4874931;29;20476;-75
2021/04/11 00:33:33;;;;;;;17.08;12.90;;;8.90;99.90;;;;;;4883970;29;20053;-75
2021/04/11 00:36:02;;;;;;;16.23;11.70;;;8.90;99.90;;;;;;4870281;29;20089;-75
2021/04/11 00:38:30;;;;;;;16.27;11.45;;;8.90;99.90;;;;;;4890100;29;20044;-75
2021/04/11 00:41:01;;;;;;;17.58;11.43;;;8.90;99.90;;;;;;4889372;29;20100;-75
2021/04/11 00:43:28;;;;;;;16.48;11.63;;;8.90;99.90;;;;;;4884078;29;20057;-75
2021/04/11 00:46:04;;;;;;;18.98;11.65;;;8.90;99.90;;;;;;4889460;29;20063;-75
2021/04/11 00:48:32;;;;;;;14.30;10.55;;;8.90;99.90;;;;;;4887908;29;20072;-75
2021/04/11 00:51:12;;;;;;;14.75;11.55;;;8.90;99.90;;;;;;4872981;29;20758;-75
2021/04/11 00:53:40;;;;;;;17.67;12.07;;;8.90;99.90;;;;;;4871928;29;20712;-75
2021/04/11 00:56:08;;;;;;;13.45;10.10;;;8.90;99.90;;;;;;4870548;29;20065;-76
2021/04/11 00:58:37;;;;;;;12.23;10.35;;;9.00;99.90;;;;;;4870501;29;20108;-75
2021/04/11 01:01:06;;;;;;;14.15;10.60;;;9.00;99.90;;;;;;4884604;29;20072;-75
2021/04/11 01:03:36;;;;;;;15.05;10.98;;;9.00;99.90;;;;;;4886285;29;20497;-76
2021/04/11 01:06:07;;;;;;;13.57;9.10;;;9.00;99.90;;;;;;4879982;29;20144;-75
2021/04/11 01:08:35;;;;;;;13.20;10.10;;;9.00;99.90;;;;;;4906140;29;20064;-75
2021/04/11 01:11:25;;;;;;;12.55;9.80;;;9.00;99.90;;;;;;4886076;29;20524;-75
2021/04/11 01:13:59;;;;;;;10.18;8.93;;;9.00;99.90;;;;;;4886719;29;20053;-76
2021/04/11 01:16:28;;;;;;;12.02;9.68;;;9.10;99.90;;;;;;4881947;29;20488;-75
2021/04/11 01:18:56;;;;;;;14.95;9.80;;;9.10;99.90;;;;;;4858091;29;20052;-74
2021/04/11 01:21:49;;;;;;;16.05;11.15;;;9.10;99.90;;;;;;4889678;29;20041;-74
2021/04/11 01:24:31;;;;;;;16.85;11.15;;;9.00;99.90;;;;;;4904415;29;20086;-74
2021/04/11 01:27:02;;;;;;;15.95;10.13;;;9.00;99.90;;;;;;4889141;29;20064;-74
2021/04/11 01:29:29;;;;;;;13.48;10.25;;;9.00;99.90;;;;;;4859863;29;20551;-74
2021/04/11 01:31:57;;;;;;;18.80;11.45;;;9.00;99.90;;;;;;4890285;29;20147;-74
2021/04/11 01:34:25;;;;;;;17.02;11.98;;;8.90;99.90;;;;;;4882203;29;20108;-74
2021/04/11 01:36:55;;;;;;;18.02;12.55;;;8.90;99.90;;;;;;4858557;29;20057;-74
2021/04/11 01:39:29;;;;;;;17.55;12.35;;;8.80;99.90;;;;;;4888812;29;20057;-74
2021/04/11 01:41:59;;;;;;;20.75;14.32;;;8.80;99.90;;;;;;4889039;29;20068;-73
2021/04/11 01:44:30;;;;;;;22.33;14.55;;;8.80;99.90;;;;;;4887827;29;20464;-74
2021/04/11 01:46:58;;;;;;;19.40;13.68;;;8.80;99.90;;;;;;4881173;29;20064;-74
2021/04/11 01:49:29;;;;;;;21.83;13.88;;;8.80;99.90;;;;;;4872171;29;20049;-74
2021/04/11 01:52:09;;;;;;;21.05;14.82;;;8.80;99.90;;;;;;4876631;29;20127;-74
2021/04/11 01:54:37;;;;;;;20.60;14.40;;;8.80;99.90;;;;;;4877752;29;20056;-75
2021/04/11 01:57:15;;;;;;;26.08;14.30;;;8.70;99.90;;;;;;4892322;29;20147;-75
2021/04/11 01:59:42;;;;;;;26.15;14.82;;;8.70;99.90;;;;;;4875632;29;20504;-73
2021/04/11 02:02:13;;;;;;;25.88;15.38;;;8.70;99.90;;;;;;4878758;29;20061;-73
2021/04/11 02:04:40;;;;;;;24.63;15.20;;;8.70;99.90;;;;;;4887977;29;20044;-74
2021/04/11 02:07:10;;;;;;;28.42;16.02;;;8.60;99.90;;;;;;4886045;29;20071;-73
2021/04/11 02:09:46;;;;;;;27.33;16.15;;;8.60;99.90;;;;;;4877445;29;20063;-75
2021/04/11 02:12:30;;;;;;;27.45;15.20;;;8.60;99.90;;;;;;4886148;29;20049;-73
2021/04/11 02:15:25;;;;;;;26.10;15.48;;;8.60;99.90;;;;;;4881623;29;20587;-73
2021/04/11 02:17:54;;;;;;;22.13;15.52;;;8.60;99.90;;;;;;4890275;29;20057;-73
2021/04/11 02:20:25;;;;;;;23.10;14.57;;;8.60;99.90;;;;;;4869171;29;20045;-73
2021/04/11 02:22:54;;;;;;;22.75;14.85;;;8.50;99.90;;;;;;4889892;29;20152;-73
2021/04/11 02:25:27;;;;;;;23.77;14.15;;;8.60;99.90;;;;;;4873053;29;20750;-73
2021/04/11 02:28:07;;;;;;;20.17;12.27;;;8.50;99.90;;;;;;4903348;29;20476;-73
2021/04/11 02:30:41;;;;;;;18.98;13.05;;;8.50;99.90;;;;;;4886271;29;20056;-73
2021/04/11 02:33:09;;;;;;;17.88;12.77;;;8.50;99.90;;;;;;4893330;29;20140;-73
2021/04/11 02:35:37;;;;;;;19.42;12.32;;;8.50;99.90;;;;;;4876153;29;20049;-74
2021/04/11 02:38:06;;;;;;;18.98;11.60;;;8.50;99.90;;;;;;4892566;29;20045;-74
2021/04/11 02:40:37;;;;;;;19.52;11.43;;;8.50;99.90;;;;;;4891381;29;20048;-73
2021/04/11 02:43:13;;;;;;;18.13;11.85;;;8.50;99.90;;;;;;4884233;29;20061;-74
2021/04/11 02:45:43;;;;;;;19.40;11.38;;;8.50;99.90;;;;;;4891455;29;20349;-74
2021/04/11 02:48:13;;;;;;;20.45;12.45;;;8.50;99.90;;;;;;4873726;29;20064;-74
2021/04/11 02:50:47;;;;;;;23.85;13.02;;;8.50;99.90;;;;;;4887595;29;20184;-74
2021/04/11 02:53:22;;;;;;;24.67;13.90;;;8.50;99.90;;;;;;4888424;29;20241;-75
2021/04/11 02:55:54;;;;;;;22.23;13.40;;;8.50;99.90;;;;;;4892195;29;20053;-73
2021/04/11 02:58:23;;;;;;;21.63;13.70;;;8.40;99.90;;;;;;4891708;29;20063;-74
2021/04/11 03:00:57;;;;;;;24.25;13.85;;;8.50;99.90;;;;;;4861519;29;20053;-74
2021/04/11 03:03:25;;;;;;;20.45;13.80;;;8.50;99.90;;;;;;4876664;29;20424;-74
2021/04/11 03:05:57;;;;;;;22.73;12.20;;;8.50;99.90;;;;;;4891893;29;20108;-73
2021/04/11 03:08:29;;;;;;;19.27;12.48;;;8.50;99.90;;;;;;4876716;29;20052;-73
2021/04/11 03:11:35;;;;;;;23.15;13.65;;;8.50;99.90;;;;;;4890544;29;20156;-74
2021/04/11 03:14:05;;;;;;;18.15;12.13;;;8.50;99.90;;;;;;4883728;29;20048;-74
2021/04/11 03:16:36;;;;;;;17.17;12.43;;;8.50;99.90;;;;;;4883253;29;20045;-74
2021/04/11 03:19:04;;;;;;;15.68;10.70;;;8.50;99.90;;;;;;4892558;29;20053;-74
2021/04/11 03:21:34;;;;;;;22.77;12.93;;;8.50;99.90;;;;;;4874802;29;20136;-74
2021/04/11 03:24:02;;;;;;;20.55;11.48;;;8.60;99.90;;;;;;4892142;29;20060;-74
2021/04/11 03:26:41;;;;;;;18.90;11.27;;;8.50;99.90;;;;;;4872487;29;20485;-74
2021/04/11 03:29:18;;;;;;;18.73;11.73;;;8.50;99.90;;;;;;4890372;29;20064;-74
2021/04/11 03:32:07;;;;;;;21.40;12.50;;;8.50;99.90;;;;;;4873623;29;20053;-74
2021/04/11 03:34:38;;;;;;;19.50;11.85;;;8.50;99.90;;;;;;4873540;29;20056;-74
2021/04/11 03:37:08;;;;;;;18.83;12.75;;;8.50;99.90;;;;;;4874300;29;20049;-74
2021/04/11 03:39:36;;;;;;;23.25;13.75;;;8.50;99.90;;;;;;4882669;29;20080;-74
2021/04/11 03:42:08;;;;;;;27.27;13.98;;;8.50;99.90;;;;;;4874437;29;20439;-73
2021/04/11 03:44:37;;;;;;;27.33;17.00;;;8.50;99.90;;;;;;4883967;29;20434;-74
2021/04/11 03:47:19;;;;;;;30.05;15.27;;;8.50;99.90;;;;;;4865489;29;20552;-74
2021/04/11 03:50:07;;;;;;;29.55;15.40;;;8.40;99.90;;;;;;4857761;29;20067;-74
2021/04/11 03:53:00;;;;;;;28.35;18.05;;;8.50;99.90;;;;;;4879343;29;20627;-74
2021/04/11 03:55:34;;;;;;;28.00;16.65;;;8.50;99.90;;;;;;4872730;29;20439;-73
2021/04/11 03:58:14;;;;;;;31.52;17.23;;;8.40;99.90;;;;;;4875273;29;20575;-74
2021/04/11 04:00:48;;;;;;;32.03;17.25;;;8.40;99.90;;;;;;4890307;29;20050;-74
2021/04/11 04:03:20;;;;;;;32.88;19.65;;;8.40;99.90;;;;;;4875427;29;20060;-75
2021/04/11 04:05:49;;;;;;;31.15;19.00;;;8.40;99.90;;;;;;4887219;29;20057;-74
2021/04/11 04:08:16;;;;;;;33.20;20.27;;;8.40;99.90;;;;;;4883206;29;20084;-74
2021/04/11 04:11:04;;;;;;;36.90;21.20;;;8.40;99.90;;;;;;4857670;29;20478;-74
2021/04/11 04:14:16;;;;;;;31.42;19.30;;;8.30;99.90;;;;;;4896492;29;20052;-74
2021/04/11 04:17:11;;;;;;;34.55;20.00;;;8.40;99.90;;;;;;4913163;29;20140;-74
2021/04/11 04:19:49;;;;;;;32.80;20.45;;;8.40;99.90;;;;;;4875338;29;20064;-74
2021/04/11 04:22:31;;;;;;;31.23;18.50;;;8.40;99.90;;;;;;4884792;29;20052;-74
2021/04/11 04:25:17;;;;;;;31.63;17.95;;;8.30;99.90;;;;;;4893458;29;20059;-74
2021/04/11 04:28:31;;;;;;;30.40;18.02;;;8.30;99.90;;;;;;4871679;29;20085;-74
2021/04/11 04:31:04;;;;;;;31.38;18.70;;;8.40;99.90;;;;;;4856127;29;20049;-74
2021/04/11 04:33:53;;;;;;;31.92;18.75;;;8.30;99.90;;;;;;4870625;29;20049;-74
2021/04/11 04:36:42;;;;;;;26.58;17.48;;;8.30;99.90;;;;;;4889323;29;20125;-74
2021/04/11 04:39:57;;;;;;;23.83;15.48;;;8.30;99.90;;;;;;4878047;29;20115;-74
2021/04/11 04:42:46;;;;;;;29.83;17.55;;;8.30;99.90;;;;;;4877627;29;20127;-74
2021/04/11 04:45:37;;;;;;;32.25;18.23;;;8.30;99.90;;;;;;4902038;29;20808;-74
2021/04/11 04:48:24;;;;;;;27.30;17.63;;;8.40;99.90;;;;;;4886892;29;20060;-75
2021/04/11 04:51:16;;;;;;;25.67;15.40;;;8.40;99.90;;;;;;4878464;29;20057;-75
2021/04/11 04:54:14;;;;;;;22.13;15.30;;;8.40;99.90;;;;;;4874635;29;20044;-75
2021/04/11 04:56:47;;;;;;;26.35;16.33;;;8.50;99.90;;;;;;4888579;29;20045;-74
2021/04/11 04:59:21;;;;;;;;;;;8.50;99.90;;;;;;4905550;29;20055;-74
2021/04/11 05:01:56;;;;;;;25.55;16.80;;;8.50;99.90;;;;;;4873167;29;20378;-74
2021/04/11 05:04:29;;;;;;;21.45;14.38;;;8.50;99.90;;;;;;4873107;29;20064;-74
2021/04/11 05:07:07;;;;;;;22.42;15.15;;;8.50;99.90;;;;;;4884794;29;20508;-75
2021/04/11 05:10:01;;;;;;;19.48;14.80;;;8.50;99.90;;;;;;4888274;29;20060;-74
2021/04/11 05:13:15;;;;;;;21.60;13.10;;;8.50;99.90;;;;;;4898213;29;20060;-74
2021/04/11 05:15:58;;;;;;;22.08;14.40;;;8.50;99.90;;;;;;4871699;29;20053;-75
2021/04/11 05:18:32;;;;;;;19.45;14.13;;;8.50;99.90;;;;;;4871143;29;20470;-75
2021/04/11 05:21:18;;;;;;;21.90;14.00;;;8.60;99.90;;;;;;4875021;29;20056;-74
2021/04/11 05:23:56;;;;;;;22.67;14.82;;;8.60;99.90;;;;;;4872815;29;20095;-74
2021/04/11 05:26:35;;;;;;;21.55;15.13;;;8.60;99.90;;;;;;4908397;29;20821;-75
2021/04/11 05:29:13;;;;;;;21.10;14.30;;;8.60;99.90;;;;;;4893498;29;20057;-74
2021/04/11 05:31:42;;;;;;;22.92;14.40;;;8.60;99.90;;;;;;4893372;29;20063;-75
2021/04/11 05:34:12;;;;;;;21.77;15.05;;;8.60;99.90;;;;;;4879641;29;20087;-75
2021/04/11 05:36:45;;;;;;;24.55;14.68;;;8.60;99.90;;;;;;4873747;29;20060;-75
2021/04/11 05:39:35;;;;;;;22.95;15.25;;;8.70;99.90;;;;;;4881188;29;20057;-75
2021/04/11 05:42:08;;;;;;;24.25;14.75;;;8.70;99.90;;;;;;4881494;29;20056;-75
2021/04/11 05:44:46;;;;;;;22.83;14.18;;;8.70;99.90;;;;;;4892845;29;20423;-74
2021/04/11 05:47:28;;;;;;;21.67;14.70;;;8.70;99.90;;;;;;4888200;29;20496;-75
2021/04/11 05:50:05;;;;;;;21.77;16.33;;;8.70;99.90;;;;;;4907247;29;20049;-74
2021/04/11 05:52:42;;;;;;;18.73;13.50;;;8.70;99.90;;;;;;4896217;29;20480;-75
2021/04/11 05:55:11;;;;;;;21.67;15.95;;;8.70;99.90;;;;;;4893150;29;20736;-75
2021/04/11 05:57:44;;;;;;;21.63;16.27;;;8.70;99.90;;;;;;4873778;29;20056;-75
2021/04/11 06:00:35;;;;;;;21.08;15.18;;;8.80;99.90;;;;;;4859870;29;20060;-75
2021/04/11 06:03:09;;;;;;;27.70;16.42;;;8.80;99.90;;;;;;4874675;29;20053;-75
2021/04/11 06:05:41;;;;;;;22.80;16.23;;;8.80;99.90;;;;;;4859923;29;20061;-75
2021/04/11 06:08:36;;;;;;;22.20;15.60;;;8.90;99.90;;;;;;4874568;29;20112;-75
2021/04/11 06:11:16;;;;;;;21.05;15.65;;;8.90;99.90;;;;;;4887640;29;20121;-75
2021/04/11 06:13:58;;;;;;;21.65;16.15;;;8.90;99.90;;;;;;4892413;29;20583;-75
2021/04/11 06:16:26;;;;;;;23.50;15.25;;;8.90;99.90;;;;;;4890286;29;20041;-75
2021/04/11 06:18:54;;;;;;;22.65;16.33;;;8.90;99.90;;;;;;4901930;29;20059;-76
2021/04/11 06:21:33;;;;;;;20.27;15.20;;;8.90;99.90;;;;;;4882803;29;20092;-75
2021/04/11 06:24:34;;;;;;;21.52;16.38;;;8.90;99.90;;;;;;4892959;29;20064;-75
2021/04/11 06:27:10;;;;;;;28.30;18.17;;;9.00;99.90;;;;;;4876452;29;20076;-74
2021/04/11 06:30:19;;;;;;;24.60;17.40;;;9.00;99.90;;;;;;4878973;29;20057;-74
2021/04/11 06:32:54;;;;;;;26.13;17.75;;;9.00;99.90;;;;;;4874227;29;20495;-75
2021/04/11 06:35:26;;;;;;;25.33;18.60;;;9.00;99.90;;;;;;4903172;29;20072;-75
2021/04/11 06:37:58;;;;;;;23.52;16.92;;;9.00;99.90;;;;;;4889547;29;20053;-74
2021/04/11 06:40:34;;;;;;;20.20;16.42;;;9.10;99.90;;;;;;4865109;29;20045;-74
2021/04/11 06:43:38;;;;;;;26.77;17.45;;;9.10;99.90;;;;;;4901093;29;20060;-75
2021/04/11 06:46:23;;;;;;;25.45;18.17;;;9.10;99.90;;;;;;4883773;29;20148;-75
2021/04/11 06:48:57;;;;;;;;;;;9.20;99.90;;;;;;4900156;29;20052;-74
2021/04/11 06:51:59;;;;;;;30.08;17.85;;;9.30;99.90;;;;;;4889145;29;19927;-74
2021/04/11 06:54:37;;;;;;;23.05;17.33;;;9.40;99.90;;;;;;4888621;29;20036;-75
2021/04/11 06:57:26;;;;;;;27.58;18.92;;;9.50;99.90;;;;;;4907508;29;20059;-75
2021/04/11 07:00:09;;;;;;;25.27;19.73;;;9.60;99.90;;;;;;4892944;29;20057;-75
2021/04/11 07:03:03;;;;;;;28.85;20.48;;;9.60;99.90;;;;;;4892998;29;20052;-74
2021/04/11 07:05:39;;;;;;;26.35;20.48;;;9.60;99.90;;;;;;4874993;29;20060;-75
2021/04/11 07:08:24;;;;;;;15.38;10.23;;;9.60;99.90;;;;;;4886795;29;20057;-75
2021/04/11 07:11:27;;;;;;;12.52;9.25;;;9.30;99.90;;;;;;4879613;29;20504;-75
2021/04/11 07:14:31;;;;;;;9.10;6.47;;;9.10;99.90;;;;;;4886055;29;20052;-76
2021/04/11 07:17:16;;;;;;;8.52;5.60;;;8.80;99.90;;;;;;4857391;29;20056;-75
2021/04/11 07:20:05;;;;;;;8.65;6.90;;;8.70;99.90;;;;;;4900485;29;20674;-75
2021/04/11 07:22:46;;;;;;;9.52;6.90;;;8.60;99.90;;;;;;4892420;29;20468;-75
2021/04/11 07:25:37;;;;;;;10.77;8.45;;;8.60;99.90;;;;;;4873468;29;20052;-75
2021/04/11 07:28:23;;;;;;;10.35;6.95;;;8.60;99.90;;;;;;4867182;29;20056;-75
2021/04/11 07:30:55;;;;;;;12.68;7.38;;;8.50;99.90;;;;;;4899384;29;20575;-75
2021/04/11 07:33:35;;;;;;;9.10;7.00;;;8.40;99.90;;;;;;4890705;29;20052;-74
2021/04/11 07:36:26;;;;;;;7.57;6.55;;;8.50;99.90;;;;;;4895177;29;20220;-74
2021/04/11 07:39:33;;;;;;;7.25;5.97;;;8.60;99.90;;;;;;4902880;29;20060;-75
2021/04/11 07:42:34;;;;;;;11.88;8.85;;;8.50;99.90;;;;;;4892561;29;20085;-75
2021/04/11 07:45:19;;;;;;;26.00;13.63;;;8.50;99.90;;;;;;4908623;29;20036;-75
2021/04/11 07:48:25;;;;;;;21.88;12.88;;;8.50;99.90;;;;;;4882100;29;20092;-74
2021/04/11 07:51:29;;;;;;;12.32;8.82;;;8.50;99.90;;;;;;4887256;29;20037;-74
2021/04/11 07:54:20;;;;;;;11.95;7.82;;;8.50;99.90;;;;;;4882328;29;20101;-75
2021/04/11 07:57:25;;;;;;;13.77;8.15;;;8.50;99.90;;;;;;4900946;29;20111;-75
2021/04/11 08:00:07;;;;;;;15.63;11.00;;;8.50;99.90;;;;;;4911351;29;20148;-74
2021/04/11 08:02:50;;;;;;;16.92;10.18;;;8.50;99.90;;;;;;4908212;29;20060;-74
2021/04/11 08:05:25;;;;;;;22.23;11.57;;;8.40;99.90;;;;;;4923847;29;20049;-74
2021/04/11 08:08:07;;;;;;;23.00;13.18;;;8.40;99.90;;;;;;4908701;29;20064;-74
2021/04/11 08:10:55;;;;;;;22.52;13.23;;;8.40;99.90;;;;;;4914347;29;20076;-73
2021/04/11 08:13:52;;;;;;;24.20;16.00;;;8.40;99.90;;;;;;4926415;29;20064;-74
2021/04/11 08:16:44;;;;;;;21.25;13.57;;;8.40;99.90;;;;;;4852874;29;20072;-74
2021/04/11 08:19:17;;;;;;;27.13;17.85;;;8.30;99.90;;;;;;4911651;29;20065;-74
2021/04/11 08:21:47;;;;;;;26.50;18.23;;;8.30;99.90;;;;;;4898596;29;20049;-74
2021/04/11 08:24:23;;;;;;;27.50;16.75;;;8.40;99.90;;;;;;4899048;29;20147;-73
2021/04/11 08:27:02;;;;;;;28.52;17.52;;;8.30;99.90;;;;;;4898934;29;20064;-74
2021/04/11 08:29:45;;;;;;;27.50;16.17;;;8.20;99.90;;;;;;4883612;29;20073;-74
2021/04/11 08:32:35;;;;;;;29.55;16.05;;;8.10;99.90;;;;;;4872577;29;20143;-73
2021/04/11 08:35:39;;;;;;;30.58;16.63;;;7.90;99.90;;;;;;4874212;29;20140;-73
2021/04/11 08:38:20;;;;;;;27.17;14.10;;;7.90;99.90;;;;;;4888373;29;20057;-74
2021/04/11 08:40:54;;;;;;;21.75;11.43;;;7.80;99.90;;;;;;4894297;29;20136;-74
2021/04/11 08:43:27;;;;;;;12.10;8.45;;;7.60;99.90;;;;;;4897390;29;20053;-74
2021/04/11 08:46:38;;;;;;;11.82;7.93;;;7.50;99.90;;;;;;4871694;29;20129;-75
2021/04/11 08:49:26;;;;;;;12.30;7.35;;;7.40;99.90;;;;;;4874166;29;20653;-74
2021/04/11 08:52:07;;;;;;;10.40;6.40;;;7.50;99.90;;;;;;4886568;29;20056;-74
2021/04/11 08:54:50;;;;;;;10.25;6.50;;;7.50;99.90;;;;;;4893392;29;20468;-74
2021/04/11 08:57:52;;;;;;;7.45;4.90;;;7.50;99.90;;;;;;4904710;29;20524;-74
2021/04/11 09:00:21;;;;;;;8.98;6.22;;;7.50;99.90;;;;;;4878071;29;20040;-74
2021/04/11 09:03:21;;;;;;;9.43;6.93;;;7.40;99.90;;;;;;4897835;29;20049;-74
2021/04/11 09:06:09;;;;;;;9.57;6.70;;;7.30;99.90;;;;;;4885412;29;20064;-75
2021/04/11 09:09:01;;;;;;;11.13;7.88;;;7.10;99.90;;;;;;4873214;29;20140;-74
2021/04/11 09:11:34;;;;;;;15.43;9.68;;;7.00;99.90;;;;;;4881430;29;20734;-74
2021/04/11 09:14:24;;;;;;;22.85;13.38;;;7.20;99.90;;;;;;4898484;29;20427;-75
2021/04/11 09:16:54;;;;;;;19.25;11.90;;;7.30;99.90;;;;;;4893077;29;20109;-74
2021/04/11 09:19:40;;;;;;;17.25;11.15;;;7.30;99.90;;;;;;4866247;29;20128;-74
2021/04/11 09:22:33;;;;;;;23.67;14.23;;;7.30;99.90;;;;;;4876894;29;20045;-75
2021/04/11 09:25:14;;;;;;;58.85;33.00;;;7.30;99.90;;;;;;4871293;29;20078;-75
2021/04/11 09:28:02;;;;;;;17.40;11.98;;;7.30;99.90;;;;;;4857769;29;20527;-74
2021/04/11 09:30:59;;;;;;;22.77;12.77;;;7.20;99.90;;;;;;4886188;29;20049;-75
2021/04/11 09:33:40;;;;;;;46.38;33.00;;;7.30;99.90;;;;;;4894676;29;20900;-75
2021/04/11 09:36:10;;;;;;;18.48;11.02;;;7.10;99.90;;;;;;4884598;29;20049;-76
2021/04/11 09:38:55;;;;;;;20.58;12.05;;;6.90;99.90;;;;;;4901512;29;20699;-75
2021/04/11 09:41:34;;;;;;;19.20;11.73;;;6.70;99.90;;;;;;4895168;29;20045;-75
2021/04/11 09:44:29;;;;;;;15.73;9.52;;;6.70;99.90;;;;;;4883180;29;20044;-74
2021/04/11 09:47:13;;;;;;;22.77;12.55;;;6.60;99.90;;;;;;4885766;29;20140;-74
2021/04/11 09:49:56;;;;;;;25.10;13.50;;;6.50;99.90;;;;;;4874565;29;20057;-75
2021/04/11 09:52:55;;;;;;;21.88;10.05;;;6.40;99.90;;;;;;4869271;29;20057;-74
2021/04/11 09:55:24;;;;;;;26.88;12.15;;;6.20;99.90;;;;;;4881995;29;20073;-74
2021/04/11 09:58:12;;;;;;;28.98;12.88;;;6.10;99.90;;;;;;4870976;29;20117;-75
2021/04/11 10:00:57;;;;;;;28.15;12.77;;;6.10;99.90;;;;;;4884571;29;20049;-75
2021/04/11 10:03:45;;;;;;;52.92;13.45;;;6.00;99.90;;;;;;4888969;29;20059;-74
2021/04/11 10:06:33;;;;;;;168.57;25.23;;;5.90;99.90;;;;;;4869078;29;20507;-75
2021/04/11 10:09:29;;;;;;;311.25;34.05;;;5.80;99.90;;;;;;4904792;29;20064;-75
2021/04/11 10:12:24;;;;;;;282.75;35.63;;;5.70;99.90;;;;;;4891677;29;20140;-75
2021/04/11 10:15:26;;;;;;;340.92;42.78;;;5.60;99.90;;;;;;4878176;29;20064;-75
2021/04/11 10:18:04;;;;;;;550.33;58.78;;;5.60;99.90;;;;;;4875741;29;20077;-75
2021/04/11 10:20:39;;;;;;;579.78;61.40;;;5.60;99.90;;;;;;4873802;29;20132;-74
2021/04/11 10:23:24;;;;;;;562.35;57.33;;;5.60;99.90;;;;;;4859460;29;20049;-75
2021/04/11 10:26:01;;;;;;;783.47;85.53;;;5.70;99.90;;;;;;4857138;29;20512;-74
2021/04/11 10:28:43;;;;;;;570.40;59.53;;;5.50;99.90;;;;;;4874204;29;20089;-74
2021/04/11 10:31:28;;;;;;;663.58;67.57;;;5.50;99.90;;;;;;4889239;29;20136;-75
2021/04/11 10:34:06;;;;;;;;;;;5.40;99.90;;;;;;4882543;29;20435;-74
2021/04/11 10:36:42;;;;;;;548.95;61.42;;;5.30;99.90;;;;;;4869570;29;20394;-75
2021/04/11 10:39:37;;;;;;;626.22;66.22;;;5.20;99.90;;;;;;4876524;29;20052;-75
2021/04/11 10:42:21;;;;;;;675.90;73.63;;;5.20;99.90;;;;;;4882790;29;20071;-75
2021/04/11 10:44:59;;;;;;;603.65;70.40;;;5.10;99.90;;;;;;4897704;29;20479;-75
2021/04/11 10:47:55;;;;;;;600.67;75.97;;;5.00;99.90;;;;;;4901430;29;20052;-75
2021/04/11 10:50:32;;;;;;;411.23;51.15;;;5.10;99.90;;;;;;4888999;29;20068;-75
2021/04/11 10:53:40;;;;;;;499.40;59.35;;;5.10;99.90;;;;;;4891229;29;20057;-75
2021/04/11 10:56:17;;;;;;;500.27;61.42;;;5.10;99.90;;;;;;4891330;29;20440;-75
2021/04/11 10:58:53;;;;;;;428.23;61.25;;;5.20;99.90;;;;;;4892302;29;20057;-75
2021/04/11 11:01:38;;;;;;;128.57;29.20;;;5.10;99.90;;;;;;4872738;29;20059;-76
2021/04/11 11:04:23;;;;;;;45.10;21.48;;;5.00;99.90;;;;;;4874763;29;20064;-75
2021/04/11 11:06:59;;;;;;;39.33;18.48;;;5.00;99.90;;;;;;4893324;29;20045;-75
2021/04/11 11:09:48;;;;;;;21.02;10.82;;;5.00;99.90;;;;;;4889929;29;20048;-74
2021/04/11 11:12:48;;;;;;;25.70;12.93;;;5.00;99.90;;;;;;4881242;29;20049;-75
2021/04/11 11:15:27;;;;;;;27.80;13.85;;;4.90;99.90;;;;;;4901733;29;20049;-75
2021/04/11 11:18:24;;;;;;;18.30;11.50;;;5.10;99.90;;;;;;4873324;29;20056;-75
2021/04/11 11:21:09;;;;;;;;;;;5.10;99.90;;;;;;4888549;29;20045;-75
2021/04/11 11:23:52;;;;;;;22.23;10.98;;;5.10;99.90;;;;;;4888408;29;20403;-75
2021/04/11 11:26:38;;;;;;;18.17;10.85;;;5.20;99.90;;;;;;4844373;29;20121;-75
2021/04/11 11:29:19;;;;;;;14.00;8.20;;;5.10;99.90;;;;;;4907572;29;20101;-74
2021/04/11 11:32:05;;;;;;;19.55;11.77;;;5.10;99.90;;;;;;4885497;29;20064;-74
2021/04/11 11:34:52;;;;;;;19.25;11.25;;;5.10;99.90;;;;;;4877994;29;20049;-75
2021/04/11 11:37:40;;;;;;;21.20;12.73;;;5.10;99.90;;;;;;4899448;29;20048;-75
2021/04/11 11:40:31;;;;;;;22.63;13.25;;;5.10;99.90;;;;;;4880117;29;20141;-75
2021/04/11 11:43:36;;;;;;;23.10;12.50;;;5.00;99.90;;;;;;4877173;29;20057;-75
2021/04/11 11:46:27;;;;;;;21.95;12.15;;;5.00;99.90;;;;;;4882612;29;20631;-74
2021/04/11 11:49:10;;;;;;;17.67;11.07;;;5.00;99.90;;;;;;4906795;29;20056;-75
2021/04/11 11:51:58;;;;;;;17.83;12.27;;;5.00;99.90;;;;;;4906891;29;20435;-75
2021/04/11 11:55:04;;;;;;;17.83;9.38;;;5.00;99.90;;;;;;4888086;29;20045;-74
2021/04/11 11:57:53;;;;;;;13.57;9.00;;;4.90;99.90;;;;;;4860426;29;20331;-74
2021/04/11 12:00:34;;;;;;;14.77;8.88;;;4.70;99.90;;;;;;4879418;29;20120;-74
2021/04/11 12:03:20;;;;;;;14.63;9.25;;;4.70;99.90;;;;;;4857313;29;20512;-75
2021/04/11 12:06:05;;;;;;;14.90;9.50;;;4.70;99.90;;;;;;4875432;29;20056;-73
2021/04/11 12:08:58;;;;;;;14.88;8.30;;;4.70;99.90;;;;;;4890710;29;20053;-73
2021/04/11 12:11:45;;;;;;;13.80;8.68;;;4.70;99.90;;;;;;4858896;29;20053;-74
2021/04/11 12:14:31;;;;;;;11.85;7.38;;;4.60;99.90;;;;;;4856581;29;20564;-74
2021/04/11 12:17:15;;;;;;;13.13;8.25;;;4.50;99.90;;;;;;4903506;29;20660;-74
2021/04/11 12:19:55;;;;;;;11.73;7.30;;;4.60;99.90;;;;;;4889552;29;20136;-73
2021/04/11 12:22:32;;;;;;;13.25;6.60;;;4.60;99.90;;;;;;4884951;29;20443;-74
2021/04/11 12:25:16;;;;;;;12.40;7.55;;;4.60;99.90;;;;;;4887801;29;20052;-74
2021/04/11 12:27:44;;;;;;;15.38;8.20;;;4.40;99.90;;;;;;4906415;29;20052;-75
2021/04/11 12:30:33;;;;;;;14.00;8.13;;;4.40;99.90;;;;;;4889551;29;20211;-74
2021/04/11 12:33:16;;;;;;;15.63;9.20;;;4.50;99.90;;;;;;4870927;29;20057;-74
2021/04/11 12:36:17;;;;;;;13.77;8.02;;;4.50;99.90;;;;;;4887414;29;20053;-74
2021/04/11 12:39:04;;;;;;;8.68;5.90;;;4.40;99.90;;;;;;4878037;29;20175;-75
2021/04/11 12:41:42;;;;;;;10.10;6.22;;;4.30;99.90;;;;;;4886634;29;20167;-75
2021/04/11 12:44:20;;;;;;;9.50;5.93;;;4.30;99.90;;;;;;4892314;29;20053;-75
2021/04/11 12:46:53;;;;;;;7.38;4.95;;;4.20;99.90;;;;;;4895024;29;20092;-75
2021/04/11 12:49:35;;;;;;;11.02;5.10;;;4.20;99.90;;;;;;4889038;29;20052;-74
2021/04/11 12:52:10;;;;;;;7.20;4.80;;;4.20;99.90;;;;;;4890010;29;20060;-76
2021/04/11 12:54:47;;;;;;;8.88;5.05;;;4.00;99.90;;;;;;4853632;29;20101;-74
2021/04/11 12:57:37;;;;;;;10.80;5.47;;;4.00;99.90;;;;;;4886721;29;20219;-74
2021/04/11 13:00:09;;;;;;;7.10;4.30;;;4.00;99.90;;;;;;4871290;29;20060;-75
2021/04/11 13:03:09;;;;;;;9.38;5.72;;;3.90;99.90;;;;;;4881840;29;20057;-74
2021/04/11 13:05:36;;;;;;;9.07;5.22;;;3.90;99.90;;;;;;4869676;29;20053;-74
2021/04/11 13:08:11;;;;;;;6.18;4.97;;;3.90;99.90;;;;;;4901938;29;20049;-73
2021/04/11 13:10:56;;;;;;;6.05;4.22;;;3.90;99.90;;;;;;4886044;29;20497;-74
2021/04/11 13:13:58;;;;;;;6.85;5.10;;;3.80;99.90;;;;;;4883319;29;20151;-74
2021/04/11 13:16:35;;;;;;;6.40;3.90;;;3.70;99.90;;;;;;4869278;29;20678;-75
2021/04/11 13:19:09;;;;;;;5.10;3.45;;;3.80;99.90;;;;;;4887324;29;20574;-74
2021/04/11 13:21:52;;;;;;;8.13;4.38;;;3.80;99.90;;;;;;4887377;29;20715;-75
2021/04/11 13:24:56;;;;;;;7.13;4.38;;;3.70;99.90;;;;;;4904004;29;20063;-75
2021/04/11 13:27:38;;;;;;;10.68;4.97;;;3.70;99.90;;;;;;4873740;29;20052;-74
2021/04/11 13:30:17;;;;;;;11.57;5.80;;;3.50;99.90;;;;;;4888718;29;20586;-75
2021/04/11 13:33:12;;;;;;;7.72;4.78;;;3.50;99.90;;;;;;4886406;29;20060;-75
2021/04/11 13:35:44;;;;;;;7.07;4.50;;;3.40;99.90;;;;;;4871570;29;20068;-75
2021/04/11 13:38:29;;;;;;;9.52;5.30;;;3.50;99.90;;;;;;4889213;29;20136;-75
2021/04/11 13:41:22;;;;;;;6.97;4.75;;;3.40;99.90;;;;;;4884646;29;20112;-75
2021/04/11 13:44:01;;;;;;;8.20;5.10;;;3.40;99.90;;;;;;4884238;29;20127;-74
2021/04/11 13:46:37;;;;;;;7.25;4.97;;;3.30;99.90;;;;;;4885469;29;20053;-75
2021/04/11 13:49:30;;;;;;;7.38;4.60;;;3.30;99.90;;;;;;4893233;29;20053;-75
2021/04/11 13:52:06;;;;;;;8.02;5.25;;;3.30;99.90;;;;;;4892712;29;20072;-74